Time;durP1;ratioP1;P1;durP2;ratioP2;P2;SDS_P1;SDS_P2;PMS_P1;PMS_P2;Temp;Humidity;BMP_temperature;BMP_pressure;BME280_temperature;BME280_humidity;BME280_pressure;Samples;Min_cycle;Max_cycle;Signal;HPM_P1;HPM_P2
2024/04/03 00:01:09;;;;;;;22.33;9.73;;;;;;;;;;4933064;28;20047;-65
2024/04/03 00:03:35;;;;;;;20.67;9.13;;;;;;;;;;4928099;28;20487;-66
2024/04/03 00:06:02;;;;;;;28.90;9.57;;;;;;;;;;4945810;28;20043;-65
2024/04/03 00:08:28;;;;;;;19.60;8.73;;;;;;;;;;4960746;28;20134;-65
2024/04/03 00:10:54;;;;;;;23.23;9.63;;;;;;;;;;4965374;28;20474;-65
2024/04/03 00:13:20;;;;;;;29.67;10.48;;;;;;;;;;4964575;28;20050;-65
2024/04/03 00:15:48;;;;;;;37.28;11.18;;;;;;;;;;4964147;28;20053;-65
2024/04/03 00:18:15;;;;;;;44.35;12.70;;;;;;;;;;4962948;28;20125;-65
2024/04/03 00:20:41;;;;;;;32.50;11.90;;;;;;;;;;4962082;28;20503;-65
2024/04/03 00:23:07;;;;;;;37.63;11.30;;;;;;;;;;4962095;28;20038;-66
2024/04/03 00:25:33;;;;;;;35.63;11.85;;;;;;;;;;4962194;28;20054;-65
2024/04/03 00:27:59;;;;;;;42.67;13.00;;;;;;;;;;4962720;28;20039;-65
2024/04/03 00:30:25;;;;;;;33.63;12.07;;;;;;;;;;4962829;28;20417;-65
2024/04/03 00:32:52;;;;;;;29.98;12.05;;;;;;;;;;4962696;28;20038;-65
2024/04/03 00:35:18;;;;;;;47.88;13.65;;;;;;;;;;4961881;28;21185;-65
2024/04/03 00:37:44;;;;;;;43.85;13.27;;;;;;;;;;4947932;28;20050;-65
2024/04/03 00:40:11;;;;;;;36.70;12.57;;;;;;;;;;4948021;28;20135;-65
2024/04/03 00:42:37;;;;;;;41.53;12.45;;;;;;;;;;4963665;28;20050;-65
2024/04/03 00:45:03;;;;;;;38.70;13.25;;;;;;;;;;4957020;28;20514;-65
2024/04/03 00:47:29;;;;;;;44.97;12.25;;;;;;;;;;4948069;28;20074;-65
2024/04/03 00:49:56;;;;;;;36.30;11.98;;;;;;;;;;4949673;28;20146;-65
2024/04/03 00:52:23;;;;;;;33.47;12.80;;;;;;;;;;4968457;28;20051;-65
2024/04/03 00:54:49;;;;;;;43.25;12.15;;;;;;;;;;4968903;28;20042;-65
2024/04/03 00:57:15;;;;;;;36.67;13.95;;;;;;;;;;4966611;28;20118;-65
2024/04/03 00:59:42;;;;;;;34.08;11.85;;;;;;;;;;4948708;28;20043;-65
2024/04/03 01:02:08;;;;;;;35.58;11.18;;;;;;;;;;4966417;28;20054;-65
2024/04/03 01:04:34;;;;;;;42.05;12.73;;;;;;;;;;4966439;28;20470;-65
2024/04/03 01:07:02;;;;;;;34.85;12.75;;;;;;;;;;4955785;28;20125;-65
2024/04/03 01:09:29;;;;;;;36.03;11.75;;;;;;;;;;4949016;28;20150;-65
2024/04/03 01:11:55;;;;;;;32.97;11.65;;;;;;;;;;4965557;28;20125;-65
2024/04/03 01:14:21;;;;;;;49.40;13.30;;;;;;;;;;4965236;28;20047;-65
2024/04/03 01:16:47;;;;;;;34.38;12.35;;;;;;;;;;4949470;28;20089;-66
2024/04/03 01:19:13;;;;;;;41.88;12.57;;;;;;;;;;4946148;28;20440;-65
2024/04/03 01:21:39;;;;;;;42.40;11.32;;;;;;;;;;4964895;28;20109;-65
2024/04/03 01:24:06;;;;;;;42.78;12.30;;;;;;;;;;4967135;28;20071;-65
2024/04/03 01:26:32;;;;;;;43.30;12.52;;;;;;;;;;4947983;28;20081;-65
2024/04/03 01:28:58;;;;;;;38.63;12.27;;;;;;;;;;4946188;28;20057;-65
2024/04/03 01:31:24;;;;;;;42.22;13.82;;;;;;;;;;4948310;28;21621;-65
2024/04/03 01:33:50;;;;;;;36.58;12.70;;;;;;;;;;4963353;28;20133;-65
2024/04/03 01:36:17;;;;;;;38.13;11.95;;;;;;;;;;4948299;28;20073;-65
2024/04/03 01:38:43;;;;;;;44.97;12.52;;;;;;;;;;4965279;28;20070;-65
2024/04/03 01:41:10;;;;;;;40.15;12.88;;;;;;;;;;4960707;28;20051;-66
2024/04/03 01:43:37;;;;;;;42.60;13.15;;;;;;;;;;4948367;28;20078;-65
2024/04/03 01:46:03;;;;;;;43.95;12.20;;;;;;;;;;4965126;28;20412;-65
2024/04/03 01:48:29;;;;;;;42.80;12.27;;;;;;;;;;4964769;28;20117;-65
2024/04/03 01:50:56;;;;;;;50.20;12.40;;;;;;;;;;4956363;28;20054;-65
2024/04/03 01:53:22;;;;;;;43.95;12.10;;;;;;;;;;4948303;28;20065;-66
2024/04/03 01:55:53;;;;;;;50.10;11.63;;;;;;;;;;4962605;28;20047;-65
2024/04/03 01:58:20;;;;;;;48.47;13.77;;;;;;;;;;4962129;28;20388;-66
2024/04/03 02:00:47;;;;;;;48.85;11.70;;;;;;;;;;4963513;28;20039;-65
2024/04/03 02:03:13;;;;;;;53.42;12.73;;;;;;;;;;4947041;28;20051;-65
2024/04/03 02:05:39;;;;;;;50.05;12.38;;;;;;;;;;4964492;28;20042;-65
2024/04/03 02:08:05;;;;;;;63.33;13.23;;;;;;;;;;4946058;28;20116;-65
2024/04/03 02:10:31;;;;;;;54.28;14.30;;;;;;;;;;4949971;28;20131;-65
2024/04/03 02:12:58;;;;;;;41.42;11.50;;;;;;;;;;4963377;28;20633;-65
2024/04/03 02:15:24;;;;;;;49.83;12.68;;;;;;;;;;4943065;28;20122;-65
2024/04/03 02:17:50;;;;;;;46.45;11.80;;;;;;;;;;4948678;28;20166;-65
2024/04/03 02:20:16;;;;;;;59.08;12.73;;;;;;;;;;4964605;28;20049;-65
2024/04/03 02:22:42;;;;;;;47.25;12.20;;;;;;;;;;4947783;28;20046;-65
2024/04/03 02:25:09;;;;;;;49.25;11.60;;;;;;;;;;4964780;28;20054;-65
2024/04/03 02:27:35;;;;;;;46.03;10.88;;;;;;;;;;4963539;28;20528;-65
2024/04/03 02:30:01;;;;;;;41.47;10.73;;;;;;;;;;4964307;28;20102;-65
2024/04/03 02:32:27;;;;;;;42.22;10.05;;;;;;;;;;4946319;28;20035;-65
2024/04/03 02:34:54;;;;;;;46.15;11.43;;;;;;;;;;4961311;28;20525;-65
2024/04/03 02:37:20;;;;;;;50.55;12.10;;;;;;;;;;4963706;28;20058;-65
2024/04/03 02:39:47;;;;;;;49.47;11.55;;;;;;;;;;4943367;28;20479;-65
2024/04/03 02:42:13;;;;;;;47.97;11.15;;;;;;;;;;4961634;28;20058;-65
2024/04/03 02:44:39;;;;;;;50.17;10.90;;;;;;;;;;4964911;28;20374;-65
2024/04/03 02:47:05;;;;;;;56.25;12.60;;;;;;;;;;4947678;28;20051;-65
2024/04/03 02:49:32;;;;;;;48.63;13.35;;;;;;;;;;4961953;28;20047;-65
2024/04/03 02:51:58;;;;;;;49.17;12.73;;;;;;;;;;4964926;28;20062;-65
2024/04/03 02:54:24;;;;;;;56.78;10.48;;;;;;;;;;4947864;28;20049;-65
2024/04/03 02:56:50;;;;;;;48.60;10.40;;;;;;;;;;4946997;28;22415;-65
2024/04/03 02:59:16;;;;;;;49.38;11.10;;;;;;;;;;4948301;28;20053;-65
2024/04/03 03:01:42;;;;;;;42.75;10.20;;;;;;;;;;4947100;28;20059;-65
2024/04/03 03:04:08;;;;;;;49.25;10.52;;;;;;;;;;4952666;28;20055;-65
2024/04/03 03:06:35;;;;;;;38.40;10.60;;;;;;;;;;4969882;28;20043;-66
2024/04/03 03:09:01;;;;;;;43.00;11.35;;;;;;;;;;4951617;28;20070;-65
2024/04/03 03:11:27;;;;;;;47.45;10.65;;;;;;;;;;4953200;28;20050;-65
2024/04/03 03:13:53;;;;;;;46.83;11.27;;;;;;;;;;4950872;28;20462;-65
2024/04/03 03:16:21;;;;;;;46.75;11.02;;;;;;;;;;4968020;28;20153;-65
2024/04/03 03:18:47;;;;;;;47.25;11.65;;;;;;;;;;4966608;28;20095;-65
2024/04/03 03:21:14;;;;;;;49.67;13.57;;;;;;;;;;4964031;28;20109;-65
2024/04/03 03:23:40;;;;;;;39.92;11.73;;;;;;;;;;4964892;28;20038;-65
2024/04/03 03:26:06;;;;;;;51.65;13.10;;;;;;;;;;4956985;28;20597;-65
2024/04/03 03:28:32;;;;;;;44.80;13.40;;;;;;;;;;4944827;28;20142;-65
2024/04/03 03:30:58;;;;;;;48.53;13.65;;;;;;;;;;4947287;28;20047;-65
2024/04/03 03:33:26;;;;;;;53.05;14.43;;;;;;;;;;4964285;28;20047;-65
2024/04/03 03:35:52;;;;;;;44.10;13.15;;;;;;;;;;4963646;28;20150;-65
2024/04/03 03:38:19;;;;;;;50.17;13.73;;;;;;;;;;4961710;28;20046;-65
2024/04/03 03:40:45;;;;;;;46.20;12.27;;;;;;;;;;4947579;28;20098;-65
2024/04/03 03:43:11;;;;;;;61.08;15.10;;;;;;;;;;4963249;28;20194;-65
2024/04/03 03:45:45;;;;;;;39.92;12.32;;;;;;;;;;4963443;28;20510;-65
2024/04/03 03:48:12;;;;;;;59.03;16.00;;;;;;;;;;4945782;28;20426;-65
2024/04/03 03:53:25;;;;;;;48.00;14.63;;;;;;;;;;4946134;28;20062;-65
2024/04/03 03:55:51;;;;;;;59.70;13.85;;;;;;;;;;4946508;28;20050;-65
2024/04/03 03:58:18;;;;;;;45.28;13.90;;;;;;;;;;4947836;28;20051;-65
2024/04/03 04:00:44;;;;;;;55.78;15.63;;;;;;;;;;4965053;28;20042;-65
2024/04/03 04:03:10;;;;;;;56.75;17.00;;;;;;;;;;4961856;28;20079;-65
2024/04/03 04:05:36;;;;;;;62.15;17.38;;;;;;;;;;4965677;28;20050;-66
2024/04/03 04:08:03;;;;;;;51.45;16.50;;;;;;;;;;4944971;28;20062;-65
2024/04/03 04:10:29;;;;;;;57.72;17.17;;;;;;;;;;4945307;28;20134;-65
2024/04/03 04:12:55;;;;;;;51.45;16.00;;;;;;;;;;4948053;28;20433;-65
2024/04/03 04:15:23;;;;;;;72.55;19.02;;;;;;;;;;4947186;28;20103;-65
2024/04/03 04:17:51;;;;;;;56.20;16.92;;;;;;;;;;4948919;28;20049;-65
2024/04/03 04:20:17;;;;;;;57.40;19.10;;;;;;;;;;4946879;28;20073;-65
2024/04/03 04:22:45;;;;;;;54.85;17.83;;;;;;;;;;4946712;28;20078;-65
2024/04/03 04:25:12;;;;;;;58.17;18.10;;;;;;;;;;4949873;28;20046;-65
2024/04/03 04:27:38;;;;;;;57.00;17.52;;;;;;;;;;4949051;28;20150;-65
2024/04/03 04:30:05;;;;;;;59.22;18.92;;;;;;;;;;4946529;28;20055;-65
2024/04/03 04:32:31;;;;;;;60.78;20.10;;;;;;;;;;4948165;28;20097;-65
2024/04/03 04:34:57;;;;;;;60.38;18.90;;;;;;;;;;4946209;28;20043;-65
2024/04/03 04:37:24;;;;;;;54.80;18.33;;;;;;;;;;4947354;28;20101;-65
2024/04/03 04:39:51;;;;;;;63.30;19.55;;;;;;;;;;4958427;28;20142;-65
2024/04/03 04:42:17;;;;;;;64.47;19.33;;;;;;;;;;4944392;28;20122;-65
2024/04/03 04:44:43;;;;;;;51.70;19.15;;;;;;;;;;4947397;28;20047;-65
2024/04/03 04:47:09;;;;;;;53.95;19.35;;;;;;;;;;4946548;28;20399;-65
2024/04/03 04:49:35;;;;;;;62.47;20.20;;;;;;;;;;4945511;28;20126;-65
2024/04/03 04:52:01;;;;;;;61.30;20.38;;;;;;;;;;4947002;28;20062;-65
2024/04/03 04:54:28;;;;;;;65.50;20.27;;;;;;;;;;4946408;28;20118;-65
2024/04/03 04:56:54;;;;;;;68.82;20.80;;;;;;;;;;4943182;28;20043;-65
2024/04/03 04:59:20;;;;;;;56.13;19.27;;;;;;;;;;4944625;28;20058;-65
2024/04/03 05:01:46;;;;;;;58.25;20.55;;;;;;;;;;4943597;28;20071;-65
2024/04/03 05:04:13;;;;;;;52.97;19.23;;;;;;;;;;4945801;28;20479;-65
2024/04/03 05:06:39;;;;;;;58.90;18.65;;;;;;;;;;4946567;28;20649;-65
2024/04/03 05:09:06;;;;;;;62.13;19.00;;;;;;;;;;4963408;28;20970;-65
2024/04/03 05:11:33;;;;;;;52.22;16.90;;;;;;;;;;4961161;28;20777;-65
2024/04/03 05:13:59;;;;;;;50.95;16.92;;;;;;;;;;4962246;28;20190;-65
2024/04/03 05:16:26;;;;;;;58.38;19.50;;;;;;;;;;4963435;28;20672;-65
2024/04/03 05:18:52;;;;;;;50.70;17.25;;;;;;;;;;4941566;28;20057;-65
2024/04/03 05:21:19;;;;;;;54.50;17.17;;;;;;;;;;4944415;28;20050;-65
2024/04/03 05:23:46;;;;;;;52.97;16.55;;;;;;;;;;4943887;28;20141;-65
2024/04/03 05:26:14;;;;;;;51.88;17.63;;;;;;;;;;4952409;28;20038;-65
2024/04/03 05:28:40;;;;;;;55.47;16.92;;;;;;;;;;4961789;28;20234;-65
2024/04/03 05:31:08;;;;;;;43.83;16.92;;;;;;;;;;4943987;28;20051;-65
2024/04/03 05:33:35;;;;;;;45.65;16.90;;;;;;;;;;4963295;28;20499;-65
2024/04/03 05:36:01;;;;;;;51.60;18.02;;;;;;;;;;4947962;28;20618;-65
2024/04/03 05:38:28;;;;;;;43.50;18.00;;;;;;;;;;4941937;28;20039;-65
2024/04/03 05:40:55;;;;;;;50.15;18.02;;;;;;;;;;4942636;28;20047;-65
2024/04/03 05:43:21;;;;;;;44.58;18.02;;;;;;;;;;4960208;28;20121;-65
2024/04/03 05:45:47;;;;;;;57.38;19.23;;;;;;;;;;4944051;28;20078;-65
2024/04/03 05:48:15;;;;;;;50.90;18.05;;;;;;;;;;4962220;28;20043;-65
2024/04/03 05:50:42;;;;;;;49.85;18.63;;;;;;;;;;4944827;28;20332;-65
2024/04/03 05:53:08;;;;;;;48.75;18.00;;;;;;;;;;4963842;28;20047;-65
2024/04/03 05:55:34;;;;;;;49.75;17.98;;;;;;;;;;4944067;28;20047;-65
2024/04/03 05:58:02;;;;;;;53.25;18.42;;;;;;;;;;4961318;28;20337;-65
2024/04/03 06:00:28;;;;;;;50.47;17.92;;;;;;;;;;4960442;28;20050;-65
2024/04/03 06:02:55;;;;;;;50.03;18.10;;;;;;;;;;4967667;28;20487;-65
2024/04/03 06:05:21;;;;;;;42.72;17.30;;;;;;;;;;4964196;28;20053;-65
2024/04/03 06:07:49;;;;;;;42.47;17.08;;;;;;;;;;4959120;28;20074;-65
2024/04/03 06:10:16;;;;;;;42.33;17.30;;;;;;;;;;4946834;28;20127;-66
2024/04/03 06:12:42;;;;;;;42.55;16.90;;;;;;;;;;4944491;28;20137;-65
2024/04/03 06:15:08;;;;;;;41.17;16.90;;;;;;;;;;4944852;28;20059;-65
2024/04/03 06:17:35;;;;;;;44.38;18.88;;;;;;;;;;4942424;28;20103;-66
2024/04/03 06:20:01;;;;;;;40.38;19.45;;;;;;;;;;4945917;28;20047;-66
2024/04/03 06:22:27;;;;;;;41.55;18.60;;;;;;;;;;4944264;28;20130;-66
2024/04/03 06:24:54;;;;;;;43.28;18.95;;;;;;;;;;4956834;28;20059;-66
2024/04/03 06:27:20;;;;;;;42.53;17.98;;;;;;;;;;4942027;28;20380;-66
2024/04/03 06:29:46;;;;;;;46.10;18.08;;;;;;;;;;4945704;28;20074;-66
2024/04/03 06:32:12;;;;;;;44.00;18.50;;;;;;;;;;4944978;28;20086;-66
2024/04/03 06:34:39;;;;;;;48.70;18.67;;;;;;;;;;4944160;28;20786;-66
2024/04/03 06:37:06;;;;;;;40.05;17.10;;;;;;;;;;4943974;28;20132;-66
2024/04/03 06:39:32;;;;;;;42.00;18.38;;;;;;;;;;4946245;28;20126;-66
2024/04/03 06:41:58;;;;;;;41.38;16.92;;;;;;;;;;4945242;29;20074;-66
2024/04/03 06:44:24;;;;;;;42.60;18.17;;;;;;;;;;4943808;28;20056;-66
2024/04/03 06:46:51;;;;;;;44.28;18.25;;;;;;;;;;4946200;28;20122;-66
2024/04/03 06:49:17;;;;;;;46.22;18.15;;;;;;;;;;4947586;28;20043;-66
2024/04/03 06:51:43;;;;;;;47.33;18.70;;;;;;;;;;4948872;28;20444;-66
2024/04/03 06:54:09;;;;;;;44.33;19.42;;;;;;;;;;4948358;28;20047;-66
2024/04/03 06:56:35;;;;;;;45.83;18.92;;;;;;;;;;4949249;28;20039;-66
2024/04/03 06:59:02;;;;;;;43.50;20.13;;;;;;;;;;4951033;28;20047;-67
2024/04/03 07:01:29;;;;;;;44.00;20.67;;;;;;;;;;4946934;28;20044;-66
2024/04/03 07:03:56;;;;;;;45.22;18.88;;;;;;;;;;4948465;28;20051;-67
2024/04/03 07:06:22;;;;;;;42.33;19.27;;;;;;;;;;4947334;28;20070;-66
2024/04/03 07:08:49;;;;;;;50.15;21.55;;;;;;;;;;4963527;28;20051;-66
2024/04/03 07:11:15;;;;;;;44.17;21.17;;;;;;;;;;4948382;28;20134;-66
2024/04/03 07:13:41;;;;;;;40.40;19.77;;;;;;;;;;4965311;28;20070;-66
2024/04/03 07:16:08;;;;;;;47.92;20.95;;;;;;;;;;4950932;28;20043;-66
2024/04/03 07:18:38;;;;;;;48.28;22.10;;;;;;;;;;4949534;28;20456;-66
2024/04/03 07:21:04;;;;;;;51.80;21.30;;;;;;;;;;4944547;28;20348;-67
2024/04/03 07:23:31;;;;;;;43.65;21.13;;;;;;;;;;4962522;28;20481;-67
2024/04/03 07:25:57;;;;;;;45.38;21.58;;;;;;;;;;4963609;28;20089;-70
2024/04/03 07:28:24;;;;;;;45.85;20.58;;;;;;;;;;4949856;28;20045;-67
2024/04/03 07:30:51;;;;;;;41.60;20.58;;;;;;;;;;4946969;28;20069;-67
2024/04/03 07:33:18;;;;;;;47.30;22.02;;;;;;;;;;4968951;28;20042;-68
2024/04/03 07:35:44;;;;;;;41.53;20.17;;;;;;;;;;4964679;28;20071;-69
2024/04/03 07:38:10;;;;;;;42.30;20.80;;;;;;;;;;4955479;28;20069;-66
2024/04/03 07:40:37;;;;;;;47.65;20.30;;;;;;;;;;4964597;28;20098;-68
2024/04/03 07:43:03;;;;;;;45.05;22.52;;;;;;;;;;4950231;28;20066;-66
2024/04/03 07:45:30;;;;;;;48.03;21.42;;;;;;;;;;4964098;28;20043;-64
2024/04/03 07:47:58;;;;;;;47.55;21.58;;;;;;;;;;4964886;28;20062;-64
2024/04/03 07:50:25;;;;;;;53.78;21.60;;;;;;;;;;4950378;28;20113;-64
2024/04/03 07:52:51;;;;;;;53.92;21.70;;;;;;;;;;4962703;28;20060;-64
2024/04/03 07:55:17;;;;;;;55.58;22.48;;;;;;;;;;4963241;28;20447;-64
2024/04/03 07:57:43;;;;;;;46.20;20.38;;;;;;;;;;4964169;28;20058;-64
2024/04/03 08:00:10;;;;;;;49.45;21.25;;;;;;;;;;4945869;28;20090;-64
2024/04/03 08:02:37;;;;;;;51.63;21.92;;;;;;;;;;4947897;28;20050;-64
2024/04/03 08:05:05;;;;;;;44.38;21.10;;;;;;;;;;4962594;28;20375;-65
2024/04/03 08:07:31;;;;;;;44.88;20.52;;;;;;;;;;4946773;28;20051;-64
2024/04/03 08:10:00;;;;;;;47.92;22.05;;;;;;;;;;4948863;28;20105;-64
2024/04/03 08:12:27;;;;;;;42.40;20.75;;;;;;;;;;4964498;28;20162;-65
2024/04/03 08:14:53;;;;;;;43.45;22.13;;;;;;;;;;4965608;28;20070;-66
2024/04/03 08:17:19;;;;;;;42.65;20.23;;;;;;;;;;4963061;28;20126;-66
2024/04/03 08:19:45;;;;;;;48.78;20.95;;;;;;;;;;4963247;28;20821;-66
2024/04/03 08:22:11;;;;;;;41.85;19.80;;;;;;;;;;4946910;28;20522;-65
2024/04/03 08:24:38;;;;;;;35.25;18.25;;;;;;;;;;4964460;28;20053;-66
2024/04/03 08:27:04;;;;;;;36.40;18.42;;;;;;;;;;4961875;28;20039;-66
2024/04/03 08:29:33;;;;;;;32.80;18.98;;;;;;;;;;4948956;28;20051;-66
2024/04/03 08:31:59;;;;;;;37.05;18.10;;;;;;;;;;4965637;28;20525;-66
2024/04/03 08:34:26;;;;;;;36.00;17.70;;;;;;;;;;4950745;28;20550;-66
2024/04/03 08:36:52;;;;;;;31.58;15.65;;;;;;;;;;4947468;28;20039;-66
2024/04/03 08:39:18;;;;;;;33.88;17.25;;;;;;;;;;4953784;28;20130;-66
2024/04/03 08:41:45;;;;;;;36.28;17.75;;;;;;;;;;4953986;28;20171;-66
2024/04/03 08:44:12;;;;;;;32.15;18.10;;;;;;;;;;4950385;28;20069;-68
2024/04/03 08:46:38;;;;;;;33.35;17.77;;;;;;;;;;4965122;28;20047;-66
2024/04/03 08:49:07;;;;;;;30.80;16.42;;;;;;;;;;4945973;28;20043;-66
2024/04/03 08:51:33;;;;;;;30.90;16.15;;;;;;;;;;4966861;28;20038;-66
2024/04/03 08:54:04;;;;;;;33.97;16.27;;;;;;;;;;4967714;28;20047;-66
2024/04/03 08:56:31;;;;;;;30.30;15.95;;;;;;;;;;4965750;28;20126;-67
2024/04/03 08:58:59;;;;;;;28.40;15.43;;;;;;;;;;4968101;28;20038;-66
2024/04/03 09:01:26;;;;;;;30.77;16.40;;;;;;;;;;4963426;28;20039;-66
2024/04/03 09:03:52;;;;;;;34.78;16.30;;;;;;;;;;4963554;28;20055;-67
2024/04/03 09:06:18;;;;;;;25.02;14.60;;;;;;;;;;4948212;28;20061;-66
2024/04/03 09:08:44;;;;;;;23.40;14.48;;;;;;;;;;4946555;28;20577;-67
2024/04/03 09:11:12;;;;;;;26.77;14.02;;;;;;;;;;4965582;28;20053;-66
2024/04/03 09:13:38;;;;;;;26.35;14.27;;;;;;;;;;4968582;28;20058;-66
2024/04/03 09:16:04;;;;;;;31.83;15.93;;;;;;;;;;4963224;28;20035;-66
2024/04/03 09:18:32;;;;;;;26.02;14.68;;;;;;;;;;4962768;28;22195;-76
2024/04/03 09:21:02;;;;;;;30.35;16.02;;;;;;;;;;4943827;28;20047;-66
2024/04/03 09:23:31;;;;;;;23.67;14.77;;;;;;;;;;4961901;28;20892;-66
2024/04/03 09:25:57;;;;;;;30.52;15.80;;;;;;;;;;4962740;28;20066;-66
2024/04/03 09:28:24;;;;;;;27.98;15.23;;;;;;;;;;4961077;28;20047;-66
2024/04/03 09:30:50;;;;;;;26.88;15.35;;;;;;;;;;4964793;28;20471;-66
2024/04/03 09:33:16;;;;;;;27.17;15.55;;;;;;;;;;4947453;28;20072;-66
2024/04/03 09:35:43;;;;;;;26.73;15.80;;;;;;;;;;4964841;28;20170;-66
2024/04/03 09:38:11;;;;;;;27.42;16.25;;;;;;;;;;4963477;28;20050;-66
2024/04/03 09:40:37;;;;;;;25.88;15.68;;;;;;;;;;4944233;28;20054;-66
2024/04/03 09:43:05;;;;;;;29.02;16.38;;;;;;;;;;4962285;28;20046;-66
2024/04/03 09:45:32;;;;;;;23.98;15.20;;;;;;;;;;4943590;28;20074;-66
2024/04/03 09:47:59;;;;;;;25.50;14.93;;;;;;;;;;4963282;28;20532;-67
2024/04/03 09:50:31;;;;;;;27.65;15.30;;;;;;;;;;4964035;28;20443;-66
2024/04/03 09:52:57;;;;;;;25.88;15.50;;;;;;;;;;4944025;28;20058;-65
2024/04/03 09:55:28;;;;;;;26.15;15.73;;;;;;;;;;4960517;28;20096;-66
2024/04/03 09:57:59;;;;;;;26.52;15.65;;;;;;;;;;4961541;28;20142;-65
2024/04/03 10:00:25;;;;;;;26.40;16.38;;;;;;;;;;4949389;28;20058;-66
2024/04/03 10:02:51;;;;;;;28.13;15.40;;;;;;;;;;4953775;28;20059;-66
2024/04/03 10:05:21;;;;;;;23.52;14.65;;;;;;;;;;4961614;28;20077;-66
2024/04/03 10:08:08;;;;;;;25.33;14.90;;;;;;;;;;4963215;28;20110;-66
2024/04/03 10:10:35;;;;;;;23.75;14.60;;;;;;;;;;4962667;28;20054;-66
2024/04/03 10:13:01;;;;;;;25.90;15.90;;;;;;;;;;4962498;28;20070;-66
2024/04/03 10:15:28;;;;;;;22.73;14.95;;;;;;;;;;4963244;28;20073;-66
2024/04/03 10:18:01;;;;;;;30.90;17.65;;;;;;;;;;4962701;28;20046;-66
2024/04/03 10:20:37;;;;;;;19.60;13.43;;;;;;;;;;4942458;28;20118;-66
2024/04/03 10:23:04;;;;;;;19.02;12.90;;;;;;;;;;4964704;28;20359;-66
2024/04/03 10:25:31;;;;;;;18.23;12.23;;;;;;;;;;4962120;28;20091;-66
2024/04/03 10:27:57;;;;;;;23.50;12.07;;;;;;;;;;4962439;28;20127;-66
2024/04/03 10:30:24;;;;;;;19.75;11.85;;;;;;;;;;4960953;28;20471;-66
2024/04/03 10:32:54;;;;;;;16.73;11.32;;;;;;;;;;4948673;28;20065;-66
2024/04/03 10:35:21;;;;;;;18.33;11.73;;;;;;;;;;4962459;28;20067;-66
2024/04/03 10:37:47;;;;;;;21.02;12.02;;;;;;;;;;4965566;28;20047;-66
2024/04/03 10:40:13;;;;;;;18.63;11.30;;;;;;;;;;4965246;28;20107;-66
2024/04/03 10:42:40;;;;;;;18.80;11.43;;;;;;;;;;4963810;28;20038;-66
2024/04/03 10:45:08;;;;;;;18.55;11.50;;;;;;;;;;4961738;28;20039;-66
2024/04/03 10:47:35;;;;;;;18.92;12.77;;;;;;;;;;4964672;28;20054;-66
2024/04/03 10:50:01;;;;;;;17.17;12.18;;;;;;;;;;4958226;28;20062;-66
2024/04/03 10:52:29;;;;;;;19.52;10.88;;;;;;;;;;4962478;28;20391;-66
2024/04/03 10:54:55;;;;;;;17.23;11.27;;;;;;;;;;4964003;28;20042;-67
2024/04/03 10:57:22;;;;;;;20.08;11.30;;;;;;;;;;4946442;28;20122;-66
2024/04/03 10:59:48;;;;;;;26.35;11.82;;;;;;;;;;4946271;28;20221;-67
2024/04/03 11:02:15;;;;;;;16.42;10.95;;;;;;;;;;4960819;28;20081;-79
2024/04/03 11:04:42;;;;;;;20.05;10.07;;;;;;;;;;4965254;28;20074;-66
2024/04/03 11:07:08;;;;;;;16.73;9.52;;;;;;;;;;4966695;28;20051;-66
2024/04/03 11:09:34;;;;;;;15.65;9.48;;;;;;;;;;4947264;28;20062;-66
2024/04/03 11:12:01;;;;;;;13.73;9.25;;;;;;;;;;4966373;28;20051;-66
2024/04/03 11:14:27;;;;;;;13.55;8.55;;;;;;;;;;4948980;28;20099;-66
2024/04/03 11:16:54;;;;;;;12.30;8.10;;;;;;;;;;4943899;28;20043;-66
2024/04/03 11:19:20;;;;;;;16.40;9.60;;;;;;;;;;4947211;28;20047;-66
2024/04/03 11:21:46;;;;;;;17.95;10.18;;;;;;;;;;4949102;28;20174;-66
2024/04/03 11:24:12;;;;;;;16.13;10.55;;;;;;;;;;4951639;28;20488;-66
2024/04/03 11:26:42;;;;;;;16.83;10.27;;;;;;;;;;4970109;28;20035;-66
2024/04/03 11:29:25;;;;;;;15.68;10.32;;;;;;;;;;4946142;28;20060;-67
2024/04/03 11:31:52;;;;;;;18.98;10.32;;;;;;;;;;4946770;28;20058;-66
2024/04/03 11:34:18;;;;;;;15.55;9.60;;;;;;;;;;4951586;28;20457;-67
2024/04/03 11:36:44;;;;;;;17.98;10.65;;;;;;;;;;4966842;28;20043;-66
2024/04/03 11:39:10;;;;;;;17.73;9.60;;;;;;;;;;4947976;28;20050;-67
2024/04/03 11:41:37;;;;;;;14.98;9.88;;;;;;;;;;4967271;28;20147;-66
2024/04/03 11:44:03;;;;;;;18.45;10.00;;;;;;;;;;4950372;28;20119;-67
2024/04/03 11:46:29;;;;;;;19.00;10.90;;;;;;;;;;4964041;28;20821;-67
2024/04/03 11:48:59;;;;;;;16.40;9.90;;;;;;;;;;4951417;28;20051;-65
2024/04/03 11:51:25;;;;;;;15.85;9.73;;;;;;;;;;4949924;28;21730;-76
2024/04/03 11:53:51;;;;;;;13.00;9.18;;;;;;;;;;4967229;28;20099;-66
2024/04/03 11:56:19;;;;;;;15.13;8.77;;;;;;;;;;4950943;28;20061;-67
2024/04/03 11:58:46;;;;;;;14.05;8.43;;;;;;;;;;4949568;28;20510;-66
2024/04/03 12:01:12;;;;;;;14.73;8.05;;;;;;;;;;4950342;28;20101;-66
2024/04/03 12:03:39;;;;;;;14.63;8.43;;;;;;;;;;4966921;28;20138;-66
2024/04/03 12:06:06;;;;;;;14.75;8.75;;;;;;;;;;4965993;28;20049;-66
2024/04/03 12:08:33;;;;;;;14.35;8.82;;;;;;;;;;4967479;28;20065;-66
2024/04/03 12:10:59;;;;;;;12.55;9.13;;;;;;;;;;4968121;28;20061;-66
2024/04/03 12:13:25;;;;;;;13.02;9.27;;;;;;;;;;4949432;28;21197;-66
2024/04/03 12:15:52;;;;;;;17.95;9.65;;;;;;;;;;4950375;28;20046;-66
2024/04/03 12:18:25;;;;;;;16.70;10.57;;;;;;;;;;4950530;28;20083;-66
2024/04/03 12:20:52;;;;;;;18.73;12.77;;;;;;;;;;4965541;28;20054;-66
2024/04/03 12:23:18;;;;;;;16.45;11.35;;;;;;;;;;4950436;28;20051;-66
2024/04/03 12:25:46;;;;;;;20.95;12.80;;;;;;;;;;4965335;28;20071;-67
2024/04/03 12:28:13;;;;;;;14.98;11.40;;;;;;;;;;4955436;28;20043;-66
2024/04/03 12:30:40;;;;;;;18.90;11.45;;;;;;;;;;4968544;28;20046;-67
2024/04/03 12:33:06;;;;;;;14.70;11.18;;;;;;;;;;4948953;28;20051;-67
2024/04/03 12:35:33;;;;;;;15.93;11.55;;;;;;;;;;4966180;28;20121;-67
2024/04/03 12:37:59;;;;;;;18.20;11.68;;;;;;;;;;4967268;28;20039;-66
2024/04/03 12:40:25;;;;;;;14.70;9.60;;;;;;;;;;4967029;28;20054;-67
2024/04/03 12:42:52;;;;;;;14.70;10.55;;;;;;;;;;4948966;28;20150;-66
2024/04/03 12:45:18;;;;;;;12.90;8.63;;;;;;;;;;4965854;28;20459;-67
2024/04/03 12:47:44;;;;;;;10.82;8.15;;;;;;;;;;4964942;28;20050;-67
2024/04/03 12:50:11;;;;;;;9.73;7.63;;;;;;;;;;4953260;28;20066;-67
2024/04/03 12:52:37;;;;;;;12.27;7.13;;;;;;;;;;4948332;28;20443;-67
2024/04/03 12:55:03;;;;;;;10.32;6.20;;;;;;;;;;4949423;28;20047;-67
2024/04/03 12:57:29;;;;;;;10.27;5.97;;;;;;;;;;4967524;28;20043;-67
2024/04/03 12:59:56;;;;;;;9.02;5.97;;;;;;;;;;4964933;28;20046;-67
2024/04/03 13:02:23;;;;;;;7.22;5.30;;;;;;;;;;4945135;28;20403;-67
2024/04/03 13:04:49;;;;;;;6.38;4.75;;;;;;;;;;4967624;28;21775;-67
2024/04/03 13:07:16;;;;;;;7.40;5.32;;;;;;;;;;4967641;28;20070;-67
2024/04/03 13:09:42;;;;;;;7.63;5.22;;;;;;;;;;4962997;28;20410;-68
2024/04/03 13:12:09;;;;;;;8.35;4.80;;;;;;;;;;4964972;28;20105;-67
2024/04/03 13:14:35;;;;;;;6.55;4.85;;;;;;;;;;4963547;28;20202;-67
2024/04/03 13:17:02;;;;;;;8.35;5.28;;;;;;;;;;4946514;28;20084;-67
2024/04/03 13:19:28;;;;;;;7.47;5.10;;;;;;;;;;4952214;28;20100;-67
2024/04/03 13:21:54;;;;;;;9.60;5.57;;;;;;;;;;4965038;28;20094;-67
2024/04/03 13:24:21;;;;;;;6.22;4.95;;;;;;;;;;4966750;28;20138;-67
2024/04/03 13:26:47;;;;;;;6.57;5.20;;;;;;;;;;4967042;28;20035;-67
2024/04/03 13:29:13;;;;;;;6.97;5.43;;;;;;;;;;4963924;28;20132;-67
2024/04/03 13:31:40;;;;;;;7.00;5.75;;;;;;;;;;4956792;28;20186;-67
2024/04/03 13:34:08;;;;;;;8.15;5.75;;;;;;;;;;4962231;28;20125;-67
2024/04/03 13:36:34;;;;;;;6.57;5.70;;;;;;;;;;4944230;28;20046;-67
2024/04/03 13:39:05;;;;;;;7.75;6.35;;;;;;;;;;4965220;28;20050;-73
2024/04/03 13:41:32;;;;;;;7.43;6.00;;;;;;;;;;4966868;28;20121;-66
2024/04/03 13:43:58;;;;;;;7.05;5.72;;;;;;;;;;4966130;28;20043;-66
2024/04/03 13:46:24;;;;;;;8.98;6.50;;;;;;;;;;4962546;28;20039;-66
2024/04/03 13:48:50;;;;;;;8.98;7.35;;;;;;;;;;4965257;28;20055;-66
2024/04/03 13:51:17;;;;;;;9.63;6.47;;;;;;;;;;4965338;28;20043;-66
2024/04/03 13:53:44;;;;;;;9.90;6.55;;;;;;;;;;4965851;28;20046;-67
2024/04/03 13:56:11;;;;;;;9.40;6.45;;;;;;;;;;4965145;28;20509;-66
2024/04/03 13:58:37;;;;;;;8.13;7.05;;;;;;;;;;4948311;28;20092;-66
2024/04/03 14:01:05;;;;;;;8.00;6.85;;;;;;;;;;4965850;28;20059;-66
2024/04/03 14:03:32;;;;;;;10.32;7.32;;;;;;;;;;4964730;28;20062;-66
2024/04/03 14:05:59;;;;;;;10.68;7.40;;;;;;;;;;4963641;28;20062;-66
2024/04/03 14:08:25;;;;;;;10.55;7.47;;;;;;;;;;4964466;28;20369;-66
2024/04/03 14:10:52;;;;;;;9.50;7.85;;;;;;;;;;4946458;28;20125;-66
2024/04/03 14:13:18;;;;;;;9.60;6.82;;;;;;;;;;4964451;28;20047;-66
2024/04/03 14:15:44;;;;;;;11.07;7.70;;;;;;;;;;4949100;28;20047;-66
2024/04/03 14:18:15;;;;;;;8.80;7.63;;;;;;;;;;4962830;28;20064;-66
2024/04/03 14:20:41;;;;;;;9.48;7.28;;;;;;;;;;4947383;28;20051;-66